Time;durP1;ratioP1;P1;durP2;ratioP2;P2;SDS_P1;SDS_P2;PMS_P1;PMS_P2;Temp;Humidity;BMP_temperature;BMP_pressure;BME280_temperature;BME280_humidity;BME280_pressure;Samples;Min_cycle;Max_cycle;Signal;HPM_P1;HPM_P2
2023/04/05 00:02:09;;;;;;;13.13;5.40;;;;;;;7.43;56.17;100891.72;5039367;28;20126;-53
2023/04/05 00:04:37;;;;;;;12.95;4.47;;;;;;;7.43;55.38;100891.72;5054184;28;20079;-55
2023/04/05 00:07:07;;;;;;;14.50;7.25;;;;;;;7.43;56.03;100890.88;5065338;28;20129;-50
2023/04/05 00:09:33;;;;;;;14.52;6.78;;;;;;;7.43;56.39;100876.25;5064449;28;20102;-53
2023/04/05 00:12:00;;;;;;;15.15;5.60;;;;;;;7.42;55.71;100884.81;5065337;28;20411;-55
2023/04/05 00:14:26;;;;;;;13.43;4.80;;;;;;;7.41;55.48;100875.38;5064259;28;20058;-59
2023/04/05 00:16:53;;;;;;;12.85;5.05;;;;;;;7.39;56.31;100871.88;5065792;28;20466;-49
2023/04/05 00:19:21;;;;;;;13.15;7.80;;;;;;;7.35;55.18;100877.78;5063025;28;20059;-55
2023/04/05 00:21:49;;;;;;;15.23;7.30;;;;;;;7.30;56.07;100869.09;5063599;28;20166;-58
2023/04/05 00:24:18;;;;;;;14.40;6.85;;;;;;;7.24;57.12;100874.97;5059489;28;20061;-56
2023/04/05 00:26:46;;;;;;;15.23;7.13;;;;;;;7.16;56.36;100856.72;5059349;28;20059;-51
2023/04/05 00:29:15;;;;;;;13.35;7.20;;;;;;;7.07;57.52;100861.66;5055129;28;20052;-57
2023/04/05 00:31:43;;;;;;;11.82;6.78;;;;;;;6.99;56.95;100863.19;5058705;28;20045;-52
2023/04/05 00:34:11;;;;;;;16.45;7.00;;;;;;;6.93;57.77;100857.00;5054023;28;20106;-55
2023/04/05 00:36:39;;;;;;;14.85;6.82;;;;;;;6.89;56.63;100859.50;5054220;28;20052;-56
2023/04/05 00:39:07;;;;;;;19.73;6.78;;;;;;;6.87;57.98;100854.31;5054502;28;20057;-52
2023/04/05 00:41:35;;;;;;;12.70;6.28;;;;;;;6.84;57.23;100843.91;5055250;28;20044;-55
2023/04/05 00:44:04;;;;;;;15.63;8.18;;;;;;;6.84;57.80;100837.88;5056406;28;20052;-60
2023/04/05 00:46:36;;;;;;;12.75;5.22;;;;;;;6.84;58.10;100837.88;5053361;28;20530;-60
2023/04/05 00:49:04;;;;;;;12.73;7.15;;;;;;;6.82;57.02;100830.13;5056345;28;20044;-54
2023/04/05 00:51:33;;;;;;;15.10;7.47;;;;;;;6.80;56.95;100826.66;5054044;28;20800;-55
2023/04/05 00:54:02;;;;;;;13.32;7.78;;;;;;;6.80;56.59;100821.50;5051123;28;20068;-51
2023/04/05 00:56:30;;;;;;;15.93;7.88;;;;;;;6.77;57.47;100821.41;5033633;28;20544;-53
2023/04/05 00:58:56;;;;;;;14.85;8.43;;;;;;;6.75;57.98;100825.66;5051027;28;20186;-49
2023/04/05 01:01:25;;;;;;;14.55;7.60;;;;;;;6.74;57.71;100831.63;5055337;28;20044;-51
2023/04/05 01:03:58;;;;;;;13.93;8.05;;;;;;;6.73;57.30;100829.91;5038820;28;20536;-55
2023/04/05 01:06:58;;;;;;;16.80;8.48;;;;;;;6.66;57.94;100819.44;5057361;28;20056;-55
2023/04/05 01:12:05;;;;;;;15.52;6.32;;;;;;;6.66;57.25;100819.44;5028529;28;20409;-52
2023/04/05 01:14:43;;;;;;;18.45;6.43;;;;;;;6.63;57.36;100818.50;4983525;28;20085;-56
2023/04/05 01:17:10;;;;;;;14.23;6.00;;;;;;;6.60;58.08;100818.41;4985487;28;21101;-53
2023/04/05 01:19:40;;;;;;;11.38;5.43;;;;;;;6.59;57.58;100816.66;4984166;28;20066;-57
2023/04/05 01:22:47;;;;;;;13.93;6.28;;;;;;;6.54;57.81;100808.81;4995619;28;20101;-57
2023/04/05 01:31:26;;;;;;;16.85;6.50;;;;;;;6.53;58.54;100809.66;5044294;28;20397;-49
2023/04/05 01:36:55;;;;;;;15.95;7.53;;;;;;;6.53;58.52;100813.13;5096582;27;20755;-53
2023/04/05 01:39:23;;;;;;;14.77;6.18;;;;;;;6.57;58.33;100808.91;5048715;28;20056;-56
2023/04/05 01:41:50;;;;;;;14.38;5.90;;;;;;;6.57;58.41;100798.59;5055439;28;20084;-49
2023/04/05 01:44:16;;;;;;;13.73;6.00;;;;;;;6.57;59.47;100798.59;5054719;28;20044;-55
2023/04/05 01:46:43;;;;;;;20.15;6.53;;;;;;;6.58;58.94;100790.03;5055701;28;20493;-51
2023/04/05 01:49:10;;;;;;;17.15;6.20;;;;;;;6.60;58.57;100787.50;5056590;28;20459;-49
2023/04/05 01:51:40;;;;;;;14.00;6.75;;;;;;;6.60;58.38;100788.41;5056645;28;20073;-55
2023/04/05 01:54:08;;;;;;;15.07;6.30;;;;;;;6.61;59.60;100789.25;5056624;28;20044;-55
2023/04/05 01:56:34;;;;;;;15.32;6.28;;;;;;;6.61;59.49;100779.84;5053136;28;20068;-55
2023/04/05 01:59:01;;;;;;;16.75;6.57;;;;;;;6.63;59.38;100783.34;5050950;28;20250;-59
2023/04/05 02:01:28;;;;;;;16.27;7.53;;;;;;;6.64;58.77;100781.59;5037031;28;20527;-60
2023/04/05 02:03:54;;;;;;;16.02;6.25;;;;;;;6.64;58.50;100777.34;5036540;28;20068;-57
2023/04/05 02:06:22;;;;;;;15.75;6.93;;;;;;;6.65;59.27;100776.50;5038192;28;20045;-49
2023/04/05 02:08:48;;;;;;;12.50;5.88;;;;;;;6.66;58.63;100773.09;5037089;28;20095;-53
2023/04/05 02:11:15;;;;;;;17.33;6.97;;;;;;;6.65;59.29;100766.22;5039242;28;20041;-53
2023/04/05 02:13:41;;;;;;;16.67;6.78;;;;;;;6.68;60.24;100768.88;5053279;28;20529;-53
2023/04/05 02:16:08;;;;;;;15.77;6.80;;;;;;;6.68;58.56;100771.44;5057319;28;20519;-58
2023/04/05 02:18:37;;;;;;;13.60;5.97;;;;;;;6.69;58.72;100762.88;5046609;28;20057;-52
2023/04/05 02:21:05;;;;;;;13.32;6.10;;;;;;;6.70;59.10;100753.47;5049898;28;20048;-51
2023/04/05 02:23:33;;;;;;;14.10;6.40;;;;;;;6.71;59.23;100754.31;5058600;28;20076;-57
2023/04/05 02:26:00;;;;;;;13.93;6.53;;;;;;;6.69;60.54;100747.44;5057319;28;20076;-54
2023/04/05 02:28:26;;;;;;;19.38;6.05;;;;;;;6.68;59.56;100737.97;5054505;28;20052;-52
2023/04/05 02:30:53;;;;;;;16.00;6.43;;;;;;;6.69;60.10;100736.28;5042037;28;20076;-51
2023/04/05 02:33:21;;;;;;;14.52;6.65;;;;;;;6.68;59.74;100740.53;5047262;28;20052;-53
2023/04/05 02:35:50;;;;;;;15.32;6.75;;;;;;;6.68;59.57;100740.53;5051261;28;20052;-58
2023/04/05 02:38:17;;;;;;;15.50;6.63;;;;;;;6.68;61.23;100740.53;5053955;28;20405;-59
2023/04/05 02:40:47;;;;;;;15.05;7.00;;;;;;;6.68;59.80;100731.94;5057354;28;20088;-55
2023/04/05 02:43:14;;;;;;;18.42;7.30;;;;;;;6.67;61.32;100738.81;5058549;28;20048;-54
2023/04/05 02:45:40;;;;;;;17.70;6.40;;;;;;;6.69;61.41;100731.97;5056484;28;20052;-52
2023/04/05 02:48:07;;;;;;;12.60;5.97;;;;;;;6.71;60.68;100723.41;5042955;28;20045;-50
2023/04/05 02:50:33;;;;;;;15.68;7.03;;;;;;;6.71;59.70;100721.72;5041683;28;20056;-51
2023/04/05 02:53:00;;;;;;;16.63;6.95;;;;;;;6.72;60.15;100720.03;5044174;28;20072;-48
2023/04/05 02:55:29;;;;;;;15.73;6.75;;;;;;;6.72;60.34;100725.19;5040842;28;20068;-52
2023/04/05 02:57:59;;;;;;;15.63;6.47;;;;;;;6.71;60.68;100718.25;5041396;28;20073;-58
2023/04/05 03:00:27;;;;;;;15.68;6.55;;;;;;;6.69;60.64;100719.09;5039568;28;20546;-53
2023/04/05 03:02:55;;;;;;;19.10;7.13;;;;;;;6.67;60.97;100722.47;5044061;28;20057;-55
2023/04/05 03:05:22;;;;;;;14.95;6.75;;;;;;;6.65;60.64;100714.72;5042025;28;20136;-55
2023/04/05 03:07:50;;;;;;;16.23;6.53;;;;;;;6.66;62.03;100716.44;5044260;28;20168;-54
2023/04/05 03:10:21;;;;;;;15.25;7.50;;;;;;;6.68;61.08;100714.81;5040434;28;20059;-49
2023/04/05 03:12:50;;;;;;;16.15;6.78;;;;;;;6.67;60.99;100717.34;5041923;28;20488;-53
2023/04/05 03:15:16;;;;;;;15.30;6.45;;;;;;;6.67;60.78;100718.22;5042845;28;20053;-52
2023/04/05 03:17:43;;;;;;;14.57;6.55;;;;;;;6.67;61.69;100718.22;5041966;28;20081;-58
2023/04/05 03:20:10;;;;;;;14.82;6.15;;;;;;;6.68;62.01;100714.81;5042016;28;20404;-53
2023/04/05 03:22:37;;;;;;;17.85;6.78;;;;;;;6.67;62.65;100712.19;5041971;28;20041;-60
2023/04/05 03:25:04;;;;;;;17.40;5.75;;;;;;;6.65;61.19;100709.56;5040208;28;20044;-54
2023/04/05 03:27:31;;;;;;;20.73;6.95;;;;;;;6.65;61.76;100709.56;5042160;28;20053;-53
2023/04/05 03:29:58;;;;;;;20.55;7.32;;;;;;;6.65;62.41;100708.69;5044908;28;20045;-53
2023/04/05 03:32:24;;;;;;;14.20;7.28;;;;;;;6.65;61.69;100704.41;5044265;28;20087;-56
2023/04/05 03:34:51;;;;;;;17.88;7.60;;;;;;;6.66;61.59;100701.00;5042346;28;20052;-49
2023/04/05 03:37:18;;;;;;;13.77;5.50;;;;;;;6.66;62.68;100701.00;5042494;28;20052;-52
2023/04/05 03:39:45;;;;;;;13.32;5.57;;;;;;;6.66;62.88;100700.16;5044257;28;20622;-51
2023/04/05 03:42:11;;;;;;;19.13;6.88;;;;;;;6.66;62.35;100695.84;5042201;28;20761;-58
2023/04/05 03:44:38;;;;;;;14.18;7.03;;;;;;;6.65;63.50;100694.13;5041172;28;20060;-55
2023/04/05 03:47:04;;;;;;;14.45;6.30;;;;;;;6.65;62.98;100694.13;5039017;28;20072;-59
2023/04/05 03:49:31;;;;;;;20.42;6.82;;;;;;;6.65;62.97;100707.00;5044120;28;20080;-61
2023/04/05 03:51:57;;;;;;;13.35;5.50;;;;;;;6.66;62.46;100695.84;5042664;28;21794;-57
2023/04/05 03:54:24;;;;;;;15.68;6.97;;;;;;;6.68;63.77;100698.47;5037151;28;20126;-47
2023/04/05 03:56:51;;;;;;;18.55;7.22;;;;;;;6.68;62.49;100699.34;5041535;28;20115;-54
2023/04/05 03:59:17;;;;;;;16.73;7.57;;;;;;;6.71;62.19;100692.53;5039902;28;20135;-53
2023/04/05 04:01:44;;;;;;;16.65;7.53;;;;;;;6.73;62.33;100696.00;5036387;28;20428;-55
2023/04/05 04:04:12;;;;;;;15.35;6.60;;;;;;;6.74;62.12;100687.44;5042043;28;20110;-54
2023/04/05 04:06:39;;;;;;;16.58;6.32;;;;;;;6.74;62.76;100684.88;5045032;28;20044;-47
2023/04/05 04:09:05;;;;;;;12.98;5.78;;;;;;;6.73;63.83;100681.44;5045612;28;20044;-54
2023/04/05 04:11:32;;;;;;;16.45;6.20;;;;;;;6.74;62.59;100687.44;5043202;28;20089;-54
2023/04/05 04:13:59;;;;;;;12.95;6.10;;;;;;;6.75;62.55;100684.06;5044993;28;20515;-54
2023/04/05 04:16:25;;;;;;;14.25;5.60;;;;;;;6.75;62.39;100687.50;5042465;28;20550;-53
2023/04/05 04:18:54;;;;;;;12.63;5.30;;;;;;;6.73;64.03;100675.41;5042633;28;20132;-55
2023/04/05 04:21:23;;;;;;;17.02;6.65;;;;;;;6.71;62.50;100679.66;5044256;28;20481;-55
2023/04/05 04:23:51;;;;;;;14.82;6.57;;;;;;;6.68;64.43;100672.72;5036696;28;20048;-55
2023/04/05 04:26:25;;;;;;;16.30;6.22;;;;;;;6.65;63.88;100668.38;5038884;28;20102;-49
2023/04/05 04:28:52;;;;;;;12.20;5.97;;;;;;;6.61;62.90;100665.69;5037683;28;20049;-54
2023/04/05 04:31:20;;;;;;;18.58;5.97;;;;;;;6.59;63.54;100667.38;5041632;28;20051;-60
2023/04/05 04:33:50;;;;;;;14.18;5.43;;;;;;;6.55;64.68;100661.28;5039798;28;20581;-53
2023/04/05 04:36:25;;;;;;;15.85;6.72;;;;;;;6.52;63.93;100662.06;5041148;28;20412;-55
2023/04/05 04:38:52;;;;;;;16.35;6.55;;;;;;;6.49;64.71;100658.56;5035530;28;20072;-55
2023/04/05 04:41:21;;;;;;;17.17;5.85;;;;;;;6.45;63.91;100665.31;5042384;28;20314;-56
2023/04/05 04:43:48;;;;;;;20.48;6.43;;;;;;;6.43;64.09;100662.72;5044375;28;20408;-52
2023/04/05 04:46:14;;;;;;;13.48;6.13;;;;;;;6.39;64.05;100655.75;5040452;28;20072;-58
2023/04/05 04:48:41;;;;;;;17.17;5.85;;;;;;;6.38;63.60;100654.03;5043852;28;20527;-49
2023/04/05 04:51:08;;;;;;;15.30;6.60;;;;;;;6.35;64.06;100653.94;5045024;28;20047;-50
2023/04/05 04:53:34;;;;;;;16.52;6.28;;;;;;;6.33;63.69;100649.59;5041018;28;20095;-55
2023/04/05 04:56:05;;;;;;;14.25;5.95;;;;;;;6.33;65.06;100639.31;5040780;28;20037;-54
2023/04/05 04:58:31;;;;;;;16.88;6.57;;;;;;;6.30;63.71;100646.13;5040743;28;20077;-55
2023/04/05 05:00:58;;;;;;;14.88;6.28;;;;;;;6.29;63.73;100641.78;5035200;28;20524;-54
2023/04/05 05:03:25;;;;;;;13.63;5.97;;;;;;;6.29;64.99;100646.09;5036722;28;20052;-56
2023/04/05 05:05:52;;;;;;;15.07;5.63;;;;;;;6.29;64.53;100648.66;5034408;28;20131;-54
2023/04/05 05:08:19;;;;;;;14.95;6.40;;;;;;;6.28;64.10;100647.78;5039425;28;20799;-50
2023/04/05 05:10:51;;;;;;;12.10;4.78;;;;;;;6.29;64.31;100648.66;5039537;28;20048;-55
2023/04/05 05:13:18;;;;;;;14.77;5.32;;;;;;;6.28;63.68;100644.31;5039612;28;20076;-61
2023/04/05 05:15:45;;;;;;;16.40;6.45;;;;;;;6.27;65.15;100646.06;5036929;28;20045;-51
2023/04/05 05:18:12;;;;;;;20.15;6.72;;;;;;;6.27;63.87;100645.16;5037325;28;20049;-56
2023/04/05 05:20:40;;;;;;;16.83;5.45;;;;;;;6.27;64.35;100650.31;5037065;28;20057;-59
2023/04/05 05:23:07;;;;;;;12.32;5.28;;;;;;;6.28;64.69;100646.91;5033193;28;20047;-54
2023/04/05 05:25:33;;;;;;;15.80;5.53;;;;;;;6.27;64.12;100648.63;5036009;28;20154;-53
2023/04/05 05:28:00;;;;;;;12.27;5.47;;;;;;;6.27;64.68;100640.03;5037336;28;20156;-62
2023/04/05 05:30:27;;;;;;;18.33;5.78;;;;;;;6.26;64.22;100643.44;5039450;28;20076;-57
2023/04/05 05:32:53;;;;;;;13.27;6.03;;;;;;;6.26;64.00;100646.00;5038766;28;20045;-54
2023/04/05 05:35:20;;;;;;;14.05;6.30;;;;;;;6.25;63.63;100642.56;5038902;28;20048;-59
2023/04/05 05:37:47;;;;;;;13.32;5.60;;;;;;;6.24;64.39;100645.09;5041446;28;20128;-49
2023/04/05 05:40:15;;;;;;;15.57;5.22;;;;;;;6.23;63.63;100643.34;5040471;28;20218;-51
2023/04/05 05:42:42;;;;;;;14.52;5.47;;;;;;;6.22;63.91;100645.06;5037353;28;20045;-56
2023/04/05 05:45:09;;;;;;;16.83;5.15;;;;;;;6.22;63.71;100649.34;5038431;28;20364;-53
2023/04/05 05:47:36;;;;;;;12.52;5.28;;;;;;;6.22;64.45;100651.91;5043044;28;20489;-51
2023/04/05 05:50:03;;;;;;;10.38;4.93;;;;;;;6.21;64.64;100645.03;5039337;28;20041;-55
2023/04/05 05:52:30;;;;;;;14.07;5.63;;;;;;;6.21;63.88;100651.03;5043752;28;20048;-53
2023/04/05 05:54:57;;;;;;;12.57;4.85;;;;;;;6.20;63.64;100651.00;5046321;28;20048;-54
2023/04/05 05:57:23;;;;;;;16.20;6.32;;;;;;;6.22;63.95;100657.06;5041941;28;20142;-53
2023/04/05 05:59:50;;;;;;;16.20;5.55;;;;;;;6.24;64.52;100665.66;5037744;28;20569;-57
2023/04/05 06:02:16;;;;;;;14.93;5.53;;;;;;;6.24;63.32;100663.09;5036629;28;20049;-55
2023/04/05 06:04:44;;;;;;;12.85;4.43;;;;;;;6.26;63.25;100666.59;5042792;28;20053;-55
2023/04/05 06:07:11;;;;;;;13.40;5.13;;;;;;;6.26;63.43;100662.31;5037103;28;20184;-53
2023/04/05 06:09:37;;;;;;;12.38;4.78;;;;;;;6.25;64.15;100662.28;5042137;28;20053;-52
2023/04/05 06:12:04;;;;;;;12.98;5.50;;;;;;;6.25;64.70;100667.44;5041219;28;20170;-58
2023/04/05 06:14:31;;;;;;;13.20;5.93;;;;;;;6.27;64.95;100655.47;5041698;28;20131;-57
2023/04/05 06:16:57;;;;;;;14.52;5.10;;;;;;;6.29;64.53;100653.81;5035718;28;20073;-54
2023/04/05 06:19:24;;;;;;;15.13;5.25;;;;;;;6.30;64.48;100650.41;5033070;28;20192;-57
2023/04/05 06:21:51;;;;;;;14.27;5.75;;;;;;;6.32;63.69;100653.88;5041783;28;20163;-49
2023/04/05 06:24:18;;;;;;;11.77;4.80;;;;;;;6.32;65.13;100653.88;5041164;28;20056;-56
2023/04/05 06:26:44;;;;;;;9.23;4.20;;;;;;;6.35;64.59;100653.09;5041922;28;20073;-53
2023/04/05 06:29:11;;;;;;;12.60;4.78;;;;;;;6.32;65.34;100651.31;5042093;28;20496;-55
2023/04/05 06:31:37;;;;;;;13.00;5.40;;;;;;;6.33;65.54;100645.34;5039457;28;20072;-56
2023/04/05 06:34:04;;;;;;;13.27;5.38;;;;;;;6.34;65.68;100644.50;5043245;28;20044;-54
2023/04/05 06:36:32;;;;;;;11.15;4.60;;;;;;;6.37;65.45;100652.28;5044741;28;20096;-54
2023/04/05 06:38:59;;;;;;;17.42;6.25;;;;;;;6.43;65.76;100647.28;5027421;28;20461;-52
2023/04/05 06:41:26;;;;;;;17.42;5.63;;;;;;;6.49;66.24;100656.00;5038676;28;20075;-57
2023/04/05 06:43:54;;;;;;;15.23;5.20;;;;;;;6.55;65.22;100646.72;5044397;28;20540;-51
2023/04/05 06:46:21;;;;;;;12.73;5.47;;;;;;;6.62;66.61;100652.84;5045252;28;20072;-48
2023/04/05 06:48:49;;;;;;;12.48;5.32;;;;;;;6.69;66.85;100647.03;5043150;28;20748;-48
2023/04/05 06:51:15;;;;;;;17.60;6.88;;;;;;;6.75;66.60;100646.28;5040810;28;20135;-54
2023/04/05 06:53:42;;;;;;;12.88;5.45;;;;;;;6.83;66.55;100646.47;5043077;28;20103;-51
2023/04/05 06:56:09;;;;;;;11.55;4.90;;;;;;;6.89;67.25;100649.19;5042961;28;20650;-58
2023/04/05 06:58:36;;;;;;;10.85;4.95;;;;;;;6.97;65.94;100643.31;5043308;28;20671;-55
2023/04/05 07:01:03;;;;;;;15.23;6.07;;;;;;;7.04;65.75;100640.94;5042313;28;20733;-56
2023/04/05 07:03:31;;;;;;;14.40;6.65;;;;;;;7.08;67.53;100647.00;5024886;28;20053;-61
2023/04/05 07:05:59;;;;;;;13.00;5.50;;;;;;;7.21;66.34;100648.13;5044265;28;20049;-48
2023/04/05 07:08:27;;;;;;;14.30;5.78;;;;;;;7.43;67.30;100648.59;5025540;28;20402;-56
2023/04/05 07:10:54;;;;;;;16.77;6.32;;;;;;;7.69;66.08;100641.34;5043409;28;20114;-57
2023/04/05 07:13:22;;;;;;;14.90;6.68;;;;;;;7.97;65.54;100649.56;5044673;28;20079;-55
2023/04/05 07:15:50;;;;;;;15.15;6.57;;;;;;;8.06;65.37;100645.41;5026424;28;20114;-49
2023/04/05 07:18:17;;;;;;;14.05;6.50;;;;;;;8.15;65.44;100645.59;5027941;28;20080;-52
2023/04/05 07:20:46;;;;;;;15.10;5.88;;;;;;;8.29;64.43;100648.41;5040501;28;20552;-57
2023/04/05 07:23:13;;;;;;;19.42;6.65;;;;;;;8.44;64.85;100642.59;5042595;28;20077;-48
2023/04/05 07:25:40;;;;;;;14.32;5.47;;;;;;;8.55;64.97;100634.19;5043576;28;20512;-51
2023/04/05 07:28:06;;;;;;;13.38;5.43;;;;;;;8.65;64.02;100636.03;5041954;28;20048;-60
2023/04/05 07:30:35;;;;;;;11.02;5.03;;;;;;;8.70;64.51;100631.84;5042441;28;20504;-53
2023/04/05 07:33:02;;;;;;;15.93;6.68;;;;;;;8.70;64.48;100629.25;5044364;28;21927;-55
2023/04/05 07:35:29;;;;;;;13.20;6.35;;;;;;;8.65;63.91;100630.03;5041741;28;20060;-57
2023/04/05 07:37:55;;;;;;;12.13;5.13;;;;;;;8.56;64.83;100621.31;5034287;28;20061;-58
2023/04/05 07:40:22;;;;;;;15.10;5.90;;;;;;;8.49;64.15;100614.28;5036705;28;20253;-55
2023/04/05 07:42:49;;;;;;;19.05;7.00;;;;;;;8.47;64.02;100619.41;5045058;28;20612;-52
2023/04/05 07:45:15;;;;;;;15.40;6.00;;;;;;;8.44;65.27;100616.78;5041329;28;20095;-57
2023/04/05 07:47:42;;;;;;;17.85;6.78;;;;;;;8.47;64.52;100615.94;5042872;28;20057;-56
2023/04/05 07:50:10;;;;;;;18.08;7.15;;;;;;;8.49;64.19;100619.44;5042269;28;20433;-54
2023/04/05 07:52:37;;;;;;;16.52;6.72;;;;;;;8.56;65.13;100615.25;5043405;28;20115;-58
2023/04/05 07:55:04;;;;;;;17.25;6.40;;;;;;;8.63;64.89;100617.09;5043967;28;20831;-51
2023/04/05 07:57:31;;;;;;;18.92;6.55;;;;;;;8.69;64.58;100627.53;5045191;28;20553;-59
2023/04/05 07:59:57;;;;;;;15.65;6.88;;;;;;;8.80;64.38;100624.19;5044866;28;20083;-60
2023/04/05 08:02:24;;;;;;;16.48;6.30;;;;;;;8.93;64.32;100623.53;5043756;28;20096;-57
2023/04/05 08:04:51;;;;;;;13.85;5.78;;;;;;;9.14;64.94;100622.06;5046260;28;20045;-52
2023/04/05 08:07:17;;;;;;;15.07;7.20;;;;;;;9.37;64.42;100616.31;5040147;28;20033;-58
2023/04/05 08:09:44;;;;;;;14.80;6.07;;;;;;;9.60;63.77;100623.44;5045066;28;20142;-59
2023/04/05 08:12:11;;;;;;;16.02;5.95;;;;;;;9.83;63.42;100612.47;5044228;28;20779;-59
2023/04/05 08:14:38;;;;;;;16.75;7.18;;;;;;;10.13;62.92;100623.94;5044663;28;20094;-49
2023/04/05 08:17:05;;;;;;;20.70;7.88;;;;;;;10.45;62.43;100625.94;5042072;28;20045;-56
2023/04/05 08:19:31;;;;;;;18.38;7.40;;;;;;;10.80;63.20;100614.94;5038655;28;20045;-52
2023/04/05 08:21:58;;;;;;;14.82;6.15;;;;;;;11.19;62.78;100619.44;5043827;28;20045;-53
2023/04/05 08:24:24;;;;;;;15.30;6.22;;;;;;;11.62;62.27;100618.69;5042153;28;20111;-53
2023/04/05 08:26:51;;;;;;;14.18;6.85;;;;;;;11.96;60.60;100612.69;5042287;28;20075;-55
2023/04/05 08:29:18;;;;;;;15.20;5.80;;;;;;;12.27;59.88;100617.94;5044025;28;20069;-65
2023/04/05 08:31:45;;;;;;;11.23;4.88;;;;;;;12.52;59.44;100610.09;5042152;28;20512;-59
2023/04/05 08:34:11;;;;;;;14.10;6.97;;;;;;;12.55;58.59;100615.28;5044731;28;20060;-58
2023/04/05 08:36:38;;;;;;;17.27;7.40;;;;;;;12.65;59.02;100612.66;5040810;28;20063;-54
2023/04/05 08:39:04;;;;;;;18.30;8.05;;;;;;;12.80;59.29;100602.22;5044459;28;20041;-56
2023/04/05 08:41:39;;;;;;;16.50;6.85;;;;;;;12.93;59.31;100603.03;5042731;28;20052;-54
2023/04/05 08:44:09;;;;;;;14.80;6.88;;;;;;;13.11;59.09;100607.31;5020743;28;20041;-56
2023/04/05 08:46:36;;;;;;;16.60;7.05;;;;;;;13.42;58.87;100608.03;5025773;28;20126;-55
2023/04/05 08:49:06;;;;;;;17.85;7.18;;;;;;;13.55;58.26;100611.47;5042925;28;20456;-61
2023/04/05 08:51:37;;;;;;;16.67;6.85;;;;;;;13.51;57.57;100613.22;5027099;28;20139;-52
2023/04/05 08:54:04;;;;;;;16.70;6.88;;;;;;;13.47;56.97;100616.66;5025163;28;20124;-58
2023/04/05 08:56:33;;;;;;;16.52;6.28;;;;;;;13.49;57.99;100612.38;5047231;28;20049;-52
2023/04/05 08:59:03;;;;;;;14.85;6.80;;;;;;;13.44;57.86;100614.09;5041652;28;20053;-57
2023/04/05 09:01:32;;;;;;;17.63;7.63;;;;;;;13.34;57.62;100619.34;5040647;28;20041;-53
2023/04/05 09:04:04;;;;;;;15.77;7.88;;;;;;;13.30;57.66;100612.44;5041281;28;20041;-55
2023/04/05 09:06:31;;;;;;;15.23;7.13;;;;;;;13.24;58.19;100612.44;5043507;28;20560;-52
2023/04/05 09:08:58;;;;;;;15.70;7.78;;;;;;;13.23;57.86;100605.53;5043427;28;20124;-57
2023/04/05 09:11:25;;;;;;;14.05;6.80;;;;;;;13.24;57.92;100609.84;5038940;28;20107;-59
2023/04/05 09:13:51;;;;;;;18.90;8.00;;;;;;;13.22;58.79;100614.22;5038147;28;20090;-62
2023/04/05 09:16:19;;;;;;;15.75;6.90;;;;;;;13.04;57.43;100605.59;5040663;28;20084;-50
2023/04/05 09:18:46;;;;;;;17.40;6.43;;;;;;;12.83;57.70;100607.41;5042285;28;20488;-48
2023/04/05 09:21:12;;;;;;;12.43;5.35;;;;;;;12.64;57.96;100610.94;5043174;28;20041;-56
2023/04/05 09:23:51;;;;;;;15.75;7.25;;;;;;;12.53;58.27;100614.41;5039889;28;20041;-50
2023/04/05 09:26:21;;;;;;;15.70;7.55;;;;;;;12.46;58.28;100607.50;5026008;28;20065;-55
2023/04/05 09:28:48;;;;;;;15.73;7.43;;;;;;;12.36;58.68;100601.44;5039977;28;20103;-60
2023/04/05 09:31:33;;;;;;;19.45;7.53;;;;;;;12.29;58.65;100603.19;5043765;28;20132;-60
2023/04/05 09:34:02;;;;;;;19.02;8.07;;;;;;;12.31;59.69;100598.88;5030114;28;20408;-58
2023/04/05 09:36:32;;;;;;;17.98;7.50;;;;;;;12.28;59.84;100598.88;5025792;28;20417;-56
2023/04/05 09:39:07;;;;;;;18.75;7.28;;;;;;;12.21;60.10;100602.34;5039465;28;20102;-54
2023/04/05 09:41:35;;;;;;;15.93;6.50;;;;;;;12.25;60.44;100593.66;5045046;28;20124;-57
2023/04/05 09:44:02;;;;;;;14.25;6.45;;;;;;;12.20;59.66;100595.41;5029662;28;20049;-56
2023/04/05 09:46:32;;;;;;;19.15;7.80;;;;;;;12.13;60.52;100594.53;5043155;28;20304;-52
2023/04/05 09:49:00;;;;;;;15.77;6.90;;;;;;;12.10;60.51;100598.88;5043537;28;20444;-59
2023/04/05 09:51:33;;;;;;;17.73;6.63;;;;;;;12.00;60.40;100598.84;5025535;28;20041;-56
2023/04/05 09:54:06;;;;;;;17.13;8.30;;;;;;;11.99;61.07;100597.09;5044892;28;20072;-56
2023/04/05 09:56:35;;;;;;;17.58;7.18;;;;;;;11.98;60.30;100600.56;5030180;28;20044;-54
2023/04/05 09:59:09;;;;;;;15.20;7.03;;;;;;;11.91;60.80;100591.03;5046603;28;20156;-52
2023/04/05 10:01:38;;;;;;;19.60;7.00;;;;;;;11.90;60.99;100592.78;5046306;28;20788;-60
2023/04/05 10:04:07;;;;;;;17.70;7.50;;;;;;;11.89;60.70;100592.78;5040791;28;20059;-56
2023/04/05 10:09:13;;;;;;;25.13;8.50;;;;;;;11.93;61.35;100586.72;5083405;27;20379;-59
2023/04/05 10:11:43;;;;;;;20.70;7.57;;;;;;;11.93;62.11;100582.38;5040068;28;20052;-58
2023/04/05 10:14:10;;;;;;;23.08;7.90;;;;;;;11.95;62.36;100587.59;5080160;28;20064;-52
2023/04/05 10:16:54;;;;;;;16.98;7.32;;;;;;;11.97;62.42;100593.66;5075042;28;20514;-58
2023/04/05 10:19:28;;;;;;;20.27;7.97;;;;;;;11.99;62.00;100585.88;5077244;28;20442;-59
2023/04/05 10:21:59;;;;;;;20.27;7.75;;;;;;;12.06;62.63;100582.44;5071922;28;20044;-56
2023/04/05 10:27:19;;;;;;;17.85;8.80;;;;;;;12.15;62.11;100582.44;5051015;28;20388;-54
2023/04/05 10:30:04;;;;;;;15.15;6.50;;;;;;;12.21;61.77;100565.97;4994846;28;20108;-58
2023/04/05 10:33:11;;;;;;;16.95;7.15;;;;;;;12.24;61.14;100570.28;5001586;28;20056;-53
2023/04/05 10:40:54;;;;;;;21.10;8.07;;;;;;;12.42;60.94;100559.00;5023137;27;20425;-60
2023/04/05 10:43:24;;;;;;;14.68;6.90;;;;;;;12.42;61.42;100554.69;5001123;28;20061;-54
2023/04/05 10:45:52;;;;;;;;;;;;;;;12.29;61.33;100560.78;4997804;28;20117;-63
2023/04/05 10:51:17;;;;;;;17.90;8.13;;;;;;;12.27;61.07;100563.38;5053181;27;20767;-56
2023/04/05 10:53:45;;;;;;;16.75;7.18;;;;;;;12.28;61.71;100566.81;5016770;28;20635;-54
2023/04/05 10:56:14;;;;;;;15.27;6.70;;;;;;;12.29;60.86;100559.03;5018561;28;20410;-62
2023/04/05 10:58:42;;;;;;;17.60;8.10;;;;;;;12.34;61.33;100561.63;5016711;28;20046;-54
2023/04/05 11:01:10;;;;;;;17.50;7.85;;;;;;;12.42;61.02;100556.41;5018537;28;20049;-56
2023/04/05 11:03:46;;;;;;;16.42;6.82;;;;;;;12.54;60.78;100553.81;5018488;28;20053;-56
2023/04/05 11:08:59;;;;;;;15.90;8.38;;;;;;;12.59;61.35;100552.03;5019324;28;20405;-56
2023/04/05 11:11:26;;;;;;;15.73;8.27;;;;;;;12.59;60.37;100556.38;4943241;28;20047;-56
2023/04/05 11:13:55;;;;;;;18.02;8.82;;;;;;;12.60;61.36;100548.56;4942047;28;20106;-56
2023/04/05 11:16:23;;;;;;;14.15;7.60;;;;;;;12.60;60.93;100553.75;4940660;28;20115;-57
2023/04/05 11:18:51;;;;;;;12.18;6.35;;;;;;;12.57;61.49;100552.94;4937891;29;20503;-53
2023/04/05 11:21:28;;;;;;;16.20;8.00;;;;;;;12.58;60.84;100552.91;4943194;28;20054;-51
2023/04/05 11:24:05;;;;;;;15.05;8.90;;;;;;;12.66;61.51;100546.84;4940451;28;20125;-58
2023/04/05 11:26:53;;;;;;;14.57;7.93;;;;;;;12.68;60.81;100545.09;4942385;29;20048;-52
2023/04/05 11:29:49;;;;;;;12.40;7.03;;;;;;;12.68;61.36;100542.47;4939818;29;20059;-56
2023/04/05 11:32:16;;;;;;;15.75;8.60;;;;;;;12.75;61.82;100536.41;4941577;28;20806;-59
2023/04/05 11:34:44;;;;;;;12.90;7.45;;;;;;;12.78;61.00;100536.38;4953251;28;20080;-56
2023/04/05 11:37:10;;;;;;;14.70;7.80;;;;;;;12.78;60.72;100531.19;4954555;28;20047;-60
2023/04/05 11:39:38;;;;;;;9.85;4.90;;;;;;;12.71;60.31;100525.13;4955127;28;20709;-53
2023/04/05 11:42:08;;;;;;;17.13;8.70;;;;;;;12.68;60.97;100524.28;4943599;28;20059;-56
2023/04/05 11:44:47;;;;;;;16.25;7.68;;;;;;;12.62;61.44;100524.31;4939007;28;20483;-47
2023/04/05 11:47:17;;;;;;;12.23;7.60;;;;;;;12.63;60.98;100526.06;4941363;29;20047;-57
2023/04/05 11:49:48;;;;;;;14.10;8.18;;;;;;;12.59;60.17;100523.47;4941132;29;20081;-54
2023/04/05 11:52:17;;;;;;;14.15;7.65;;;;;;;12.62;61.67;100524.31;4939734;28;20048;-53
2023/04/05 11:54:45;;;;;;;13.48;7.53;;;;;;;12.66;61.01;100521.69;4942962;28;20091;-56
2023/04/05 11:57:20;;;;;;;13.60;8.27;;;;;;;12.68;61.51;100513.91;4940447;28;20051;-61
2023/04/05 11:59:50;;;;;;;13.85;7.70;;;;;;;12.66;61.46;100518.25;4941518;28;20066;-52